sensor_id;sensor_type;location;lat;lon;timestamp;P1;durP1;ratioP1;P2;durP2;ratioP2
17991;SDS011;9121;50.926;5.340;2024-03-22T00:02:06;65.20;;;30.48;;
17991;SDS011;9121;50.926;5.340;2024-03-22T00:04:34;65.30;;;31.05;;
17991;SDS011;9121;50.926;5.340;2024-03-22T00:07:01;65.38;;;31.45;;
17991;SDS011;9121;50.926;5.340;2024-03-22T00:09:29;58.00;;;28.55;;
17991;SDS011;9121;50.926;5.340;2024-03-22T00:11:55;61.25;;;28.98;;
17991;SDS011;9121;50.926;5.340;2024-03-22T00:14:22;66.20;;;30.50;;
17991;SDS011;9121;50.926;5.340;2024-03-22T00:16:48;66.15;;;29.98;;
17991;SDS011;9121;50.926;5.340;2024-03-22T00:19:15;63.50;;;30.13;;
17991;SDS011;9121;50.926;5.340;2024-03-22T00:21:41;62.92;;;29.40;;
17991;SDS011;9121;50.926;5.340;2024-03-22T00:24:09;68.05;;;31.15;;
17991;SDS011;9121;50.926;5.340;2024-03-22T00:26:35;61.22;;;29.70;;
17991;SDS011;9121;50.926;5.340;2024-03-22T00:29:02;60.50;;;28.27;;
17991;SDS011;9121;50.926;5.340;2024-03-22T00:31:28;61.08;;;29.17;;
17991;SDS011;9121;50.926;5.340;2024-03-22T00:33:55;63.50;;;30.20;;
17991;SDS011;9121;50.926;5.340;2024-03-22T00:36:21;61.53;;;30.13;;
17991;SDS011;9121;50.926;5.340;2024-03-22T00:38:48;65.00;;;31.02;;
17991;SDS011;9121;50.926;5.340;2024-03-22T00:41:15;66.50;;;30.20;;
17991;SDS011;9121;50.926;5.340;2024-03-22T00:43:42;62.40;;;29.63;;
17991;SDS011;9121;50.926;5.340;2024-03-22T00:46:08;65.40;;;30.40;;
17991;SDS011;9121;50.926;5.340;2024-03-22T00:48:34;55.20;;;29.10;;
17991;SDS011;9121;50.926;5.340;2024-03-22T00:51:01;62.20;;;30.15;;
17991;SDS011;9121;50.926;5.340;2024-03-22T00:53:28;66.07;;;29.33;;
17991;SDS011;9121;50.926;5.340;2024-03-22T00:55:54;58.20;;;28.60;;
17991;SDS011;9121;50.926;5.340;2024-03-22T00:58:25;58.85;;;29.73;;
17991;SDS011;9121;50.926;5.340;2024-03-22T01:00:52;62.30;;;29.55;;
17991;SDS011;9121;50.926;5.340;2024-03-22T01:03:19;59.97;;;29.15;;
17991;SDS011;9121;50.926;5.340;2024-03-22T01:05:44;55.88;;;27.38;;
17991;SDS011;9121;50.926;5.340;2024-03-22T01:08:11;58.92;;;28.25;;
17991;SDS011;9121;50.926;5.340;2024-03-22T01:10:37;60.70;;;27.95;;
17991;SDS011;9121;50.926;5.340;2024-03-22T01:13:05;56.05;;;28.13;;
17991;SDS011;9121;50.926;5.340;2024-03-22T01:15:32;51.70;;;27.35;;
17991;SDS011;9121;50.926;5.340;2024-03-22T01:17:59;58.17;;;26.92;;
17991;SDS011;9121;50.926;5.340;2024-03-22T01:20:25;55.10;;;28.35;;
17991;SDS011;9121;50.926;5.340;2024-03-22T01:22:52;55.60;;;27.90;;
17991;SDS011;9121;50.926;5.340;2024-03-22T01:25:18;58.17;;;28.63;;
17991;SDS011;9121;50.926;5.340;2024-03-22T01:27:45;59.17;;;29.13;;
17991;SDS011;9121;50.926;5.340;2024-03-22T01:30:12;60.80;;;29.30;;
17991;SDS011;9121;50.926;5.340;2024-03-22T01:32:39;55.80;;;28.80;;
17991;SDS011;9121;50.926;5.340;2024-03-22T01:35:06;58.38;;;29.50;;
17991;SDS011;9121;50.926;5.340;2024-03-22T01:37:33;59.75;;;28.65;;
17991;SDS011;9121;50.926;5.340;2024-03-22T01:40:00;55.00;;;28.25;;
17991;SDS011;9121;50.926;5.340;2024-03-22T01:42:25;58.75;;;29.05;;
17991;SDS011;9121;50.926;5.340;2024-03-22T01:44:53;60.17;;;28.85;;
17991;SDS011;9121;50.926;5.340;2024-03-22T01:47:19;58.78;;;29.95;;
17991;SDS011;9121;50.926;5.340;2024-03-22T01:49:48;56.13;;;28.45;;
17991;SDS011;9121;50.926;5.340;2024-03-22T01:52:16;58.25;;;29.25;;
17991;SDS011;9121;50.926;5.340;2024-03-22T01:54:43;58.22;;;28.85;;
17991;SDS011;9121;50.926;5.340;2024-03-22T01:57:09;56.10;;;28.80;;
17991;SDS011;9121;50.926;5.340;2024-03-22T01:59:36;54.60;;;28.00;;
17991;SDS011;9121;50.926;5.340;2024-03-22T02:02:02;59.40;;;28.88;;
17991;SDS011;9121;50.926;5.340;2024-03-22T02:04:30;56.85;;;28.77;;
17991;SDS011;9121;50.926;5.340;2024-03-22T02:06:57;59.80;;;29.98;;
17991;SDS011;9121;50.926;5.340;2024-03-22T02:09:24;64.88;;;30.85;;
17991;SDS011;9121;50.926;5.340;2024-03-22T02:11:50;55.88;;;29.52;;
17991;SDS011;9121;50.926;5.340;2024-03-22T02:14:17;60.33;;;29.77;;
17991;SDS011;9121;50.926;5.340;2024-03-22T02:16:43;58.20;;;28.35;;
17991;SDS011;9121;50.926;5.340;2024-03-22T02:19:11;59.08;;;29.83;;
17991;SDS011;9121;50.926;5.340;2024-03-22T02:21:37;60.40;;;29.27;;
17991;SDS011;9121;50.926;5.340;2024-03-22T02:24:05;59.03;;;29.45;;
17991;SDS011;9121;50.926;5.340;2024-03-22T02:26:31;59.42;;;30.02;;
17991;SDS011;9121;50.926;5.340;2024-03-22T02:28:58;63.10;;;29.15;;
17991;SDS011;9121;50.926;5.340;2024-03-22T02:31:24;55.13;;;28.50;;
17991;SDS011;9121;50.926;5.340;2024-03-22T02:33:52;60.25;;;29.55;;
17991;SDS011;9121;50.926;5.340;2024-03-22T02:36:18;54.45;;;29.35;;
17991;SDS011;9121;50.926;5.340;2024-03-22T02:38:45;52.40;;;28.95;;
17991;SDS011;9121;50.926;5.340;2024-03-22T02:41:12;57.42;;;29.58;;
17991;SDS011;9121;50.926;5.340;2024-03-22T02:43:39;54.15;;;27.65;;
17991;SDS011;9121;50.926;5.340;2024-03-22T02:46:05;58.35;;;30.02;;
17991;SDS011;9121;50.926;5.340;2024-03-22T02:48:31;59.47;;;28.98;;
17991;SDS011;9121;50.926;5.340;2024-03-22T02:50:57;54.08;;;27.73;;
17991;SDS011;9121;50.926;5.340;2024-03-22T02:53:24;54.42;;;28.35;;
17991;SDS011;9121;50.926;5.340;2024-03-22T02:55:50;52.63;;;28.47;;
17991;SDS011;9121;50.926;5.340;2024-03-22T02:58:20;53.83;;;26.55;;
17991;SDS011;9121;50.926;5.340;2024-03-22T03:00:46;55.72;;;27.65;;
17991;SDS011;9121;50.926;5.340;2024-03-22T03:03:13;56.08;;;27.48;;
17991;SDS011;9121;50.926;5.340;2024-03-22T03:05:39;56.60;;;26.75;;
17991;SDS011;9121;50.926;5.340;2024-03-22T03:08:06;51.55;;;27.05;;
17991;SDS011;9121;50.926;5.340;2024-03-22T03:10:32;50.28;;;25.70;;
17991;SDS011;9121;50.926;5.340;2024-03-22T03:12:59;53.50;;;27.58;;
17991;SDS011;9121;50.926;5.340;2024-03-22T03:15:27;51.22;;;27.48;;
17991;SDS011;9121;50.926;5.340;2024-03-22T03:17:54;53.83;;;27.70;;
17991;SDS011;9121;50.926;5.340;2024-03-22T03:20:19;51.40;;;27.58;;
17991;SDS011;9121;50.926;5.340;2024-03-22T03:22:46;56.00;;;27.05;;
17991;SDS011;9121;50.926;5.340;2024-03-22T03:25:13;55.15;;;26.38;;
17991;SDS011;9121;50.926;5.340;2024-03-22T03:27:39;56.28;;;26.27;;
17991;SDS011;9121;50.926;5.340;2024-03-22T03:30:07;59.85;;;26.40;;
17991;SDS011;9121;50.926;5.340;2024-03-22T03:32:34;49.15;;;26.15;;
17991;SDS011;9121;50.926;5.340;2024-03-22T03:35:01;54.13;;;26.38;;
17991;SDS011;9121;50.926;5.340;2024-03-22T03:37:27;51.92;;;26.50;;
17991;SDS011;9121;50.926;5.340;2024-03-22T03:39:54;49.35;;;25.60;;
17991;SDS011;9121;50.926;5.340;2024-03-22T03:42:20;54.15;;;25.98;;
17991;SDS011;9121;50.926;5.340;2024-03-22T03:44:47;52.80;;;26.65;;
17991;SDS011;9121;50.926;5.340;2024-03-22T03:47:13;51.25;;;25.50;;
17991;SDS011;9121;50.926;5.340;2024-03-22T03:49:41;50.10;;;26.00;;
17991;SDS011;9121;50.926;5.340;2024-03-22T03:52:07;50.10;;;25.20;;
17991;SDS011;9121;50.926;5.340;2024-03-22T03:54:34;53.22;;;25.20;;
17991;SDS011;9121;50.926;5.340;2024-03-22T03:57:00;49.10;;;25.70;;
17991;SDS011;9121;50.926;5.340;2024-03-22T03:59:27;44.65;;;24.50;;
17991;SDS011;9121;50.926;5.340;2024-03-22T04:01:53;44.75;;;24.02;;
17991;SDS011;9121;50.926;5.340;2024-03-22T04:04:20;56.60;;;25.40;;
17991;SDS011;9121;50.926;5.340;2024-03-22T04:06:47;46.47;;;23.58;;
17991;SDS011;9121;50.926;5.340;2024-03-22T04:09:14;44.75;;;24.08;;
17991;SDS011;9121;50.926;5.340;2024-03-22T04:11:40;50.03;;;24.23;;
17991;SDS011;9121;50.926;5.340;2024-03-22T04:14:07;45.88;;;23.50;;
17991;SDS011;9121;50.926;5.340;2024-03-22T04:16:33;46.65;;;22.50;;
17991;SDS011;9121;50.926;5.340;2024-03-22T04:18:59;46.17;;;23.13;;
17991;SDS011;9121;50.926;5.340;2024-03-22T04:21:25;47.17;;;23.40;;
17991;SDS011;9121;50.926;5.340;2024-03-22T04:23:54;45.70;;;23.63;;
17991;SDS011;9121;50.926;5.340;2024-03-22T04:26:20;44.55;;;23.48;;
17991;SDS011;9121;50.926;5.340;2024-03-22T04:28:48;44.33;;;23.17;;
17991;SDS011;9121;50.926;5.340;2024-03-22T04:31:14;39.65;;;21.75;;
17991;SDS011;9121;50.926;5.340;2024-03-22T04:33:41;43.58;;;22.00;;
17991;SDS011;9121;50.926;5.340;2024-03-22T04:36:07;49.92;;;22.85;;
17991;SDS011;9121;50.926;5.340;2024-03-22T04:38:35;45.75;;;21.25;;
17991;SDS011;9121;50.926;5.340;2024-03-22T04:41:04;41.83;;;20.88;;
17991;SDS011;9121;50.926;5.340;2024-03-22T04:43:30;46.42;;;22.08;;
17991;SDS011;9121;50.926;5.340;2024-03-22T04:45:57;45.00;;;21.02;;
17991;SDS011;9121;50.926;5.340;2024-03-22T04:48:23;38.65;;;20.08;;
17991;SDS011;9121;50.926;5.340;2024-03-22T04:50:51;43.95;;;19.98;;
17991;SDS011;9121;50.926;5.340;2024-03-22T04:53:17;39.43;;;20.33;;
17991;SDS011;9121;50.926;5.340;2024-03-22T04:55:46;40.83;;;20.23;;
17991;SDS011;9121;50.926;5.340;2024-03-22T04:58:14;39.42;;;19.02;;
17991;SDS011;9121;50.926;5.340;2024-03-22T05:00:42;37.42;;;19.02;;
17991;SDS011;9121;50.926;5.340;2024-03-22T05:03:08;35.22;;;19.17;;
17991;SDS011;9121;50.926;5.340;2024-03-22T05:05:35;43.25;;;19.13;;
17991;SDS011;9121;50.926;5.340;2024-03-22T05:08:02;42.45;;;20.42;;
17991;SDS011;9121;50.926;5.340;2024-03-22T05:10:30;37.30;;;18.80;;
17991;SDS011;9121;50.926;5.340;2024-03-22T05:12:56;37.47;;;17.98;;
17991;SDS011;9121;50.926;5.340;2024-03-22T05:15:24;36.28;;;18.55;;
17991;SDS011;9121;50.926;5.340;2024-03-22T05:17:50;34.78;;;18.13;;
17991;SDS011;9121;50.926;5.340;2024-03-22T05:20:18;36.15;;;18.98;;
17991;SDS011;9121;50.926;5.340;2024-03-22T05:22:44;37.45;;;18.33;;
17991;SDS011;9121;50.926;5.340;2024-03-22T05:25:11;41.22;;;19.45;;
17991;SDS011;9121;50.926;5.340;2024-03-22T05:27:37;36.42;;;19.08;;
17991;SDS011;9121;50.926;5.340;2024-03-22T05:30:05;40.67;;;18.85;;
17991;SDS011;9121;50.926;5.340;2024-03-22T05:32:33;38.05;;;20.40;;
17991;SDS011;9121;50.926;5.340;2024-03-22T05:35:00;37.72;;;19.95;;
17991;SDS011;9121;50.926;5.340;2024-03-22T05:37:26;39.13;;;19.88;;
17991;SDS011;9121;50.926;5.340;2024-03-22T05:39:53;39.10;;;19.85;;
17991;SDS011;9121;50.926;5.340;2024-03-22T05:42:19;41.08;;;20.17;;
17991;SDS011;9121;50.926;5.340;2024-03-22T05:44:47;37.97;;;19.17;;
17991;SDS011;9121;50.926;5.340;2024-03-22T05:47:13;41.25;;;21.83;;
17991;SDS011;9121;50.926;5.340;2024-03-22T05:49:41;42.15;;;21.02;;
17991;SDS011;9121;50.926;5.340;2024-03-22T05:52:08;42.65;;;22.20;;
17991;SDS011;9121;50.926;5.340;2024-03-22T05:54:34;40.17;;;20.88;;
17991;SDS011;9121;50.926;5.340;2024-03-22T05:57:02;47.90;;;21.70;;
17991;SDS011;9121;50.926;5.340;2024-03-22T05:59:28;51.80;;;21.90;;
17991;SDS011;9121;50.926;5.340;2024-03-22T06:01:55;42.70;;;22.67;;
17991;SDS011;9121;50.926;5.340;2024-03-22T06:04:21;40.40;;;21.35;;
17991;SDS011;9121;50.926;5.340;2024-03-22T06:06:49;44.05;;;22.02;;
17991;SDS011;9121;50.926;5.340;2024-03-22T06:09:15;48.28;;;22.23;;
17991;SDS011;9121;50.926;5.340;2024-03-22T06:11:49;43.13;;;22.05;;
17991;SDS011;9121;50.926;5.340;2024-03-22T06:14:15;45.67;;;22.25;;
17991;SDS011;9121;50.926;5.340;2024-03-22T06:16:43;44.10;;;21.77;;
17991;SDS011;9121;50.926;5.340;2024-03-22T06:19:09;38.42;;;20.65;;
17991;SDS011;9121;50.926;5.340;2024-03-22T06:21:36;37.97;;;20.92;;
17991;SDS011;9121;50.926;5.340;2024-03-22T06:24:03;41.80;;;21.92;;
17991;SDS011;9121;50.926;5.340;2024-03-22T06:26:30;41.63;;;21.13;;
17991;SDS011;9121;50.926;5.340;2024-03-22T06:28:56;41.60;;;20.50;;
17991;SDS011;9121;50.926;5.340;2024-03-22T06:31:23;39.97;;;20.90;;
17991;SDS011;9121;50.926;5.340;2024-03-22T06:33:49;42.15;;;20.33;;
17991;SDS011;9121;50.926;5.340;2024-03-22T06:36:16;41.75;;;19.88;;
17991;SDS011;9121;50.926;5.340;2024-03-22T06:38:43;35.65;;;19.05;;
17991;SDS011;9121;50.926;5.340;2024-03-22T06:41:11;41.20;;;19.63;;
17991;SDS011;9121;50.926;5.340;2024-03-22T06:43:37;47.05;;;18.92;;
17991;SDS011;9121;50.926;5.340;2024-03-22T06:46:06;32.58;;;18.65;;
17991;SDS011;9121;50.926;5.340;2024-03-22T06:48:32;38.45;;;18.65;;
17991;SDS011;9121;50.926;5.340;2024-03-22T06:50:58;39.03;;;17.17;;
17991;SDS011;9121;50.926;5.340;2024-03-22T06:53:24;38.13;;;17.85;;
17991;SDS011;9121;50.926;5.340;2024-03-22T06:55:52;32.88;;;17.83;;
17991;SDS011;9121;50.926;5.340;2024-03-22T06:58:19;32.58;;;16.92;;
17991;SDS011;9121;50.926;5.340;2024-03-22T07:00:46;33.33;;;17.48;;
17991;SDS011;9121;50.926;5.340;2024-03-22T07:03:12;32.88;;;17.70;;
17991;SDS011;9121;50.926;5.340;2024-03-22T07:05:39;34.78;;;18.73;;
17991;SDS011;9121;50.926;5.340;2024-03-22T07:08:05;36.25;;;18.30;;
17991;SDS011;9121;50.926;5.340;2024-03-22T07:10:32;34.30;;;18.70;;
17991;SDS011;9121;50.926;5.340;2024-03-22T07:12:58;31.35;;;17.92;;
17991;SDS011;9121;50.926;5.340;2024-03-22T07:15:27;38.05;;;19.45;;
17991;SDS011;9121;50.926;5.340;2024-03-22T07:17:54;42.08;;;18.50;;
17991;SDS011;9121;50.926;5.340;2024-03-22T07:20:21;32.88;;;18.13;;
17991;SDS011;9121;50.926;5.340;2024-03-22T07:22:47;33.58;;;18.65;;
17991;SDS011;9121;50.926;5.340;2024-03-22T07:25:14;37.55;;;19.20;;
17991;SDS011;9121;50.926;5.340;2024-03-22T07:27:40;39.13;;;19.20;;
17991;SDS011;9121;50.926;5.340;2024-03-22T07:30:07;29.95;;;17.77;;
17991;SDS011;9121;50.926;5.340;2024-03-22T07:32:35;37.65;;;18.88;;
17991;SDS011;9121;50.926;5.340;2024-03-22T07:35:02;37.05;;;18.83;;
17991;SDS011;9121;50.926;5.340;2024-03-22T07:37:29;32.38;;;18.30;;
17991;SDS011;9121;50.926;5.340;2024-03-22T07:39:56;39.78;;;19.02;;
17991;SDS011;9121;50.926;5.340;2024-03-22T07:42:22;37.95;;;19.23;;
17991;SDS011;9121;50.926;5.340;2024-03-22T07:44:49;37.88;;;19.70;;
17991;SDS011;9121;50.926;5.340;2024-03-22T07:47:14;32.92;;;18.98;;
17991;SDS011;9121;50.926;5.340;2024-03-22T07:49:43;34.13;;;18.85;;
17991;SDS011;9121;50.926;5.340;2024-03-22T07:52:09;37.58;;;20.42;;
17991;SDS011;9121;50.926;5.340;2024-03-22T07:54:36;39.33;;;19.20;;
17991;SDS011;9121;50.926;5.340;2024-03-22T07:57:01;38.40;;;19.83;;
17991;SDS011;9121;50.926;5.340;2024-03-22T07:59:29;37.30;;;18.63;;
17991;SDS011;9121;50.926;5.340;2024-03-22T08:01:54;40.42;;;19.73;;
17991;SDS011;9121;50.926;5.340;2024-03-22T08:04:22;40.78;;;19.73;;
17991;SDS011;9121;50.926;5.340;2024-03-22T08:06:50;37.85;;;19.65;;
17991;SDS011;9121;50.926;5.340;2024-03-22T08:09:17;39.40;;;19.48;;
17991;SDS011;9121;50.926;5.340;2024-03-22T08:11:43;36.53;;;18.88;;
17991;SDS011;9121;50.926;5.340;2024-03-22T08:14:10;33.85;;;18.25;;
17991;SDS011;9121;50.926;5.340;2024-03-22T08:16:36;37.90;;;19.40;;
17991;SDS011;9121;50.926;5.340;2024-03-22T08:19:03;40.00;;;18.67;;
17991;SDS011;9121;50.926;5.340;2024-03-22T08:21:29;34.95;;;17.45;;
17991;SDS011;9121;50.926;5.340;2024-03-22T08:23:57;38.13;;;18.08;;
17991;SDS011;9121;50.926;5.340;2024-03-22T08:26:23;34.45;;;17.08;;
17991;SDS011;9121;50.926;5.340;2024-03-22T08:28:50;34.10;;;17.75;;
17991;SDS011;9121;50.926;5.340;2024-03-22T08:31:16;34.78;;;18.58;;
17991;SDS011;9121;50.926;5.340;2024-03-22T08:33:44;36.35;;;16.90;;
17991;SDS011;9121;50.926;5.340;2024-03-22T08:36:10;34.05;;;16.67;;
17991;SDS011;9121;50.926;5.340;2024-03-22T08:38:37;27.63;;;15.23;;
17991;SDS011;9121;50.926;5.340;2024-03-22T08:41:07;33.15;;;15.18;;
17991;SDS011;9121;50.926;5.340;2024-03-22T08:43:34;29.17;;;15.43;;
17991;SDS011;9121;50.926;5.340;2024-03-22T08:46:00;30.27;;;16.25;;
17991;SDS011;9121;50.926;5.340;2024-03-22T08:48:28;28.35;;;15.43;;
17991;SDS011;9121;50.926;5.340;2024-03-22T08:50:54;27.02;;;16.10;;
17991;SDS011;9121;50.926;5.340;2024-03-22T08:53:21;27.27;;;14.80;;
17991;SDS011;9121;50.926;5.340;2024-03-22T08:55:47;24.42;;;14.55;;
17991;SDS011;9121;50.926;5.340;2024-03-22T08:58:15;23.33;;;14.13;;
17991;SDS011;9121;50.926;5.340;2024-03-22T09:00:43;27.05;;;13.30;;
17991;SDS011;9121;50.926;5.340;2024-03-22T09:03:10;21.02;;;12.88;;
17991;SDS011;9121;50.926;5.340;2024-03-22T09:05:36;24.88;;;13.63;;
17991;SDS011;9121;50.926;5.340;2024-03-22T09:08:03;23.02;;;12.95;;
17991;SDS011;9121;50.926;5.340;2024-03-22T09:10:30;21.50;;;12.30;;
17991;SDS011;9121;50.926;5.340;2024-03-22T09:12:57;23.27;;;13.18;;
17991;SDS011;9121;50.926;5.340;2024-03-22T09:15:24;20.05;;;11.82;;
17991;SDS011;9121;50.926;5.340;2024-03-22T09:17:51;20.20;;;12.65;;
17991;SDS011;9121;50.926;5.340;2024-03-22T09:20:17;19.83;;;12.20;;
17991;SDS011;9121;50.926;5.340;2024-03-22T09:22:44;21.50;;;12.43;;
17991;SDS011;9121;50.926;5.340;2024-03-22T09:25:10;26.58;;;13.02;;
17991;SDS011;9121;50.926;5.340;2024-03-22T09:27:37;23.25;;;12.57;;
17991;SDS011;9121;50.926;5.340;2024-03-22T09:30:03;26.92;;;13.05;;
17991;SDS011;9121;50.926;5.340;2024-03-22T09:32:32;19.85;;;11.88;;
17991;SDS011;9121;50.926;5.340;2024-03-22T09:34:58;19.40;;;12.15;;
17991;SDS011;9121;50.926;5.340;2024-03-22T09:37:25;21.08;;;12.35;;
17991;SDS011;9121;50.926;5.340;2024-03-22T09:39:51;19.15;;;11.27;;
17991;SDS011;9121;50.926;5.340;2024-03-22T09:42:18;23.52;;;11.85;;
17991;SDS011;9121;50.926;5.340;2024-03-22T09:44:48;19.92;;;11.75;;
17991;SDS011;9121;50.926;5.340;2024-03-22T09:47:16;19.10;;;11.68;;
17991;SDS011;9121;50.926;5.340;2024-03-22T09:49:44;19.50;;;11.82;;
17991;SDS011;9121;50.926;5.340;2024-03-22T09:52:13;19.30;;;11.70;;
17991;SDS011;9121;50.926;5.340;2024-03-22T09:54:41;18.60;;;11.77;;
17991;SDS011;9121;50.926;5.340;2024-03-22T09:57:09;21.92;;;11.70;;
17991;SDS011;9121;50.926;5.340;2024-03-22T09:59:38;18.80;;;11.40;;
17991;SDS011;9121;50.926;5.340;2024-03-22T10:02:06;18.05;;;11.82;;
17991;SDS011;9121;50.926;5.340;2024-03-22T10:04:35;21.75;;;12.25;;
17991;SDS011;9121;50.926;5.340;2024-03-22T10:07:04;24.48;;;11.90;;
17991;SDS011;9121;50.926;5.340;2024-03-22T10:09:30;20.70;;;12.52;;
17991;SDS011;9121;50.926;5.340;2024-03-22T10:11:57;21.70;;;12.20;;
17991;SDS011;9121;50.926;5.340;2024-03-22T10:14:23;21.75;;;11.73;;
17991;SDS011;9121;50.926;5.340;2024-03-22T10:16:51;23.67;;;12.52;;
17991;SDS011;9121;50.926;5.340;2024-03-22T10:19:18;23.42;;;12.35;;
17991;SDS011;9121;50.926;5.340;2024-03-22T10:21:46;21.58;;;12.07;;
17991;SDS011;9121;50.926;5.340;2024-03-22T10:24:14;19.92;;;11.85;;
17991;SDS011;9121;50.926;5.340;2024-03-22T10:26:41;18.83;;;11.30;;
17991;SDS011;9121;50.926;5.340;2024-03-22T10:29:07;18.45;;;10.88;;
17991;SDS011;9121;50.926;5.340;2024-03-22T10:31:34;18.67;;;11.30;;
17991;SDS011;9121;50.926;5.340;2024-03-22T10:34:01;21.13;;;11.77;;
17991;SDS011;9121;50.926;5.340;2024-03-22T10:36:30;21.92;;;12.45;;
17991;SDS011;9121;50.926;5.340;2024-03-22T10:38:58;19.25;;;10.70;;
17991;SDS011;9121;50.926;5.340;2024-03-22T10:41:28;19.33;;;10.25;;
17991;SDS011;9121;50.926;5.340;2024-03-22T10:43:54;16.25;;;10.18;;
17991;SDS011;9121;50.926;5.340;2024-03-22T10:46:21;20.20;;;10.60;;
17991;SDS011;9121;50.926;5.340;2024-03-22T10:48:52;19.42;;;10.85;;
17991;SDS011;9121;50.926;5.340;2024-03-22T10:51:20;20.00;;;11.10;;
17991;SDS011;9121;50.926;5.340;2024-03-22T10:53:48;18.45;;;9.10;;
17991;SDS011;9121;50.926;5.340;2024-03-22T10:56:16;19.65;;;10.13;;
17991;SDS011;9121;50.926;5.340;2024-03-22T10:58:45;18.33;;;11.32;;
17991;SDS011;9121;50.926;5.340;2024-03-22T11:01:21;18.25;;;11.18;;
17991;SDS011;9121;50.926;5.340;2024-03-22T11:03:47;19.48;;;10.35;;
17991;SDS011;9121;50.926;5.340;2024-03-22T11:06:17;16.55;;;9.93;;
17991;SDS011;9121;50.926;5.340;2024-03-22T11:08:49;21.55;;;10.95;;
17991;SDS011;9121;50.926;5.340;2024-03-22T11:11:17;17.80;;;10.32;;
17991;SDS011;9121;50.926;5.340;2024-03-22T11:13:46;18.73;;;10.90;;
17991;SDS011;9121;50.926;5.340;2024-03-22T11:16:14;17.58;;;10.65;;
17991;SDS011;9121;50.926;5.340;2024-03-22T11:18:40;23.45;;;10.65;;
17991;SDS011;9121;50.926;5.340;2024-03-22T11:21:07;23.33;;;12.15;;
17991;SDS011;9121;50.926;5.340;2024-03-22T11:23:34;21.40;;;10.98;;
17991;SDS011;9121;50.926;5.340;2024-03-22T11:26:02;17.00;;;10.70;;
17991;SDS011;9121;50.926;5.340;2024-03-22T11:28:28;20.23;;;11.50;;
17991;SDS011;9121;50.926;5.340;2024-03-22T11:30:57;19.08;;;10.82;;
17991;SDS011;9121;50.926;5.340;2024-03-22T11:33:23;20.35;;;11.50;;
17991;SDS011;9121;50.926;5.340;2024-03-22T11:35:52;20.67;;;12.20;;
17991;SDS011;9121;50.926;5.340;2024-03-22T11:38:18;20.83;;;12.13;;
17991;SDS011;9121;50.926;5.340;2024-03-22T11:40:45;21.17;;;11.90;;
17991;SDS011;9121;50.926;5.340;2024-03-22T11:43:12;22.20;;;11.93;;
17991;SDS011;9121;50.926;5.340;2024-03-22T11:45:42;19.98;;;11.90;;
17991;SDS011;9121;50.926;5.340;2024-03-22T11:48:09;21.05;;;11.68;;
17991;SDS011;9121;50.926;5.340;2024-03-22T11:50:36;20.65;;;11.75;;
17991;SDS011;9121;50.926;5.340;2024-03-22T11:53:04;25.45;;;12.40;;
17991;SDS011;9121;50.926;5.340;2024-03-22T11:55:32;23.15;;;12.85;;
17991;SDS011;9121;50.926;5.340;2024-03-22T11:58:00;20.73;;;12.32;;
17991;SDS011;9121;50.926;5.340;2024-03-22T12:00:27;25.52;;;12.52;;
17991;SDS011;9121;50.926;5.340;2024-03-22T12:02:54;23.42;;;12.93;;
17991;SDS011;9121;50.926;5.340;2024-03-22T12:05:22;22.75;;;12.95;;
17991;SDS011;9121;50.926;5.340;2024-03-22T12:07:51;22.95;;;12.43;;
17991;SDS011;9121;50.926;5.340;2024-03-22T12:10:18;30.90;;;17.02;;
17991;SDS011;9121;50.926;5.340;2024-03-22T12:12:44;24.33;;;13.07;;
17991;SDS011;9121;50.926;5.340;2024-03-22T12:15:10;22.50;;;12.35;;
17991;SDS011;9121;50.926;5.340;2024-03-22T12:17:36;22.08;;;12.75;;
17991;SDS011;9121;50.926;5.340;2024-03-22T12:20:05;23.80;;;13.02;;
17991;SDS011;9121;50.926;5.340;2024-03-22T12:22:35;21.23;;;11.93;;
17991;SDS011;9121;50.926;5.340;2024-03-22T12:25:01;25.30;;;13.73;;
17991;SDS011;9121;50.926;5.340;2024-03-22T12:27:29;26.30;;;14.50;;
17991;SDS011;9121;50.926;5.340;2024-03-22T12:29:55;19.88;;;12.27;;
17991;SDS011;9121;50.926;5.340;2024-03-22T12:32:22;24.33;;;13.93;;
17991;SDS011;9121;50.926;5.340;2024-03-22T12:34:48;22.20;;;13.60;;
17991;SDS011;9121;50.926;5.340;2024-03-22T12:37:15;23.10;;;12.73;;
17991;SDS011;9121;50.926;5.340;2024-03-22T12:39:42;26.40;;;13.70;;
17991;SDS011;9121;50.926;5.340;2024-03-22T12:42:09;27.48;;;13.95;;
17991;SDS011;9121;50.926;5.340;2024-03-22T12:44:35;24.83;;;13.55;;
17991;SDS011;9121;50.926;5.340;2024-03-22T12:47:02;23.50;;;13.27;;
17991;SDS011;9121;50.926;5.340;2024-03-22T12:49:28;25.48;;;12.88;;
17991;SDS011;9121;50.926;5.340;2024-03-22T12:51:55;26.02;;;13.70;;
17991;SDS011;9121;50.926;5.340;2024-03-22T12:54:22;24.30;;;13.27;;
17991;SDS011;9121;50.926;5.340;2024-03-22T12:56:51;19.85;;;12.93;;
17991;SDS011;9121;50.926;5.340;2024-03-22T12:59:17;25.33;;;14.23;;
17991;SDS011;9121;50.926;5.340;2024-03-22T13:01:44;25.20;;;13.88;;
17991;SDS011;9121;50.926;5.340;2024-03-22T13:04:10;22.90;;;13.77;;
17991;SDS011;9121;50.926;5.340;2024-03-22T13:06:37;22.73;;;12.82;;
17991;SDS011;9121;50.926;5.340;2024-03-22T13:09:03;23.42;;;12.75;;
17991;SDS011;9121;50.926;5.340;2024-03-22T13:11:31;27.08;;;12.90;;
17991;SDS011;9121;50.926;5.340;2024-03-22T13:13:58;22.13;;;12.90;;
17991;SDS011;9121;50.926;5.340;2024-03-22T13:16:26;22.35;;;12.13;;
17991;SDS011;9121;50.926;5.340;2024-03-22T13:18:52;22.75;;;12.68;;
17991;SDS011;9121;50.926;5.340;2024-03-22T13:21:19;21.75;;;12.38;;
17991;SDS011;9121;50.926;5.340;2024-03-22T13:23:45;20.20;;;12.38;;
17991;SDS011;9121;50.926;5.340;2024-03-22T13:26:12;22.08;;;12.38;;
17991;SDS011;9121;50.926;5.340;2024-03-22T13:28:38;26.17;;;12.18;;
17991;SDS011;9121;50.926;5.340;2024-03-22T13:31:08;24.63;;;12.52;;
17991;SDS011;9121;50.926;5.340;2024-03-22T13:33:34;21.42;;;12.65;;
17991;SDS011;9121;50.926;5.340;2024-03-22T13:36:01;24.50;;;13.25;;
17991;SDS011;9121;50.926;5.340;2024-03-22T13:38:27;27.02;;;13.38;;
17991;SDS011;9121;50.926;5.340;2024-03-22T13:40:54;24.63;;;13.50;;
17991;SDS011;9121;50.926;5.340;2024-03-22T13:43:21;24.25;;;13.07;;
17991;SDS011;9121;50.926;5.340;2024-03-22T13:45:49;22.38;;;13.07;;
17991;SDS011;9121;50.926;5.340;2024-03-22T13:48:20;24.77;;;13.63;;
17991;SDS011;9121;50.926;5.340;2024-03-22T13:50:50;30.30;;;14.88;;
17991;SDS011;9121;50.926;5.340;2024-03-22T13:53:16;28.70;;;14.88;;
17991;SDS011;9121;50.926;5.340;2024-03-22T13:55:43;23.55;;;13.82;;
17991;SDS011;9121;50.926;5.340;2024-03-22T13:58:09;24.83;;;13.15;;
17991;SDS011;9121;50.926;5.340;2024-03-22T14:00:36;28.13;;;15.43;;
17991;SDS011;9121;50.926;5.340;2024-03-22T14:03:02;26.85;;;14.73;;
17991;SDS011;9121;50.926;5.340;2024-03-22T14:05:31;25.90;;;14.13;;
17991;SDS011;9121;50.926;5.340;2024-03-22T14:07:57;28.40;;;14.07;;
17991;SDS011;9121;50.926;5.340;2024-03-22T14:10:24;24.40;;;14.90;;
17991;SDS011;9121;50.926;5.340;2024-03-22T14:12:52;27.65;;;15.05;;
17991;SDS011;9121;50.926;5.340;2024-03-22T14:15:19;27.42;;;15.50;;
17991;SDS011;9121;50.926;5.340;2024-03-22T14:17:45;27.67;;;14.82;;
17991;SDS011;9121;50.926;5.340;2024-03-22T14:20:13;27.98;;;15.27;;
17991;SDS011;9121;50.926;5.340;2024-03-22T14:22:40;27.27;;;14.38;;
17991;SDS011;9121;50.926;5.340;2024-03-22T14:25:08;28.42;;;15.18;;
17991;SDS011;9121;50.926;5.340;2024-03-22T14:27:35;28.90;;;13.82;;
17991;SDS011;9121;50.926;5.340;2024-03-22T14:30:02;29.08;;;14.52;;
17991;SDS011;9121;50.926;5.340;2024-03-22T14:32:31;26.58;;;14.98;;
17991;SDS011;9121;50.926;5.340;2024-03-22T14:34:58;24.60;;;14.60;;